createdAt,value
2022-08-26T00:00:50.083Z,998.21
2022-08-26T00:01:51.128Z,998.20
2022-08-26T00:02:50.113Z,998.25
2022-08-26T00:03:50.335Z,998.23
2022-08-26T00:04:50.027Z,998.24
2022-08-26T00:05:50.058Z,998.21
2022-08-26T00:06:50.024Z,998.22
2022-08-26T00:07:50.044Z,998.22
2022-08-26T00:08:50.053Z,998.24
2022-08-26T00:09:50.168Z,998.24
2022-08-26T00:10:50.244Z,998.23
2022-08-26T00:11:50.070Z,998.21
2022-08-26T00:12:49.968Z,998.24
2022-08-26T00:13:57.471Z,998.24
2022-08-26T00:14:49.985Z,998.26
2022-08-26T00:15:50.173Z,998.25
2022-08-26T00:16:51.178Z,998.24
2022-08-26T00:17:50.197Z,998.27
2022-08-26T00:18:49.920Z,998.27
2022-08-26T00:19:49.927Z,998.28
2022-08-26T00:20:50.110Z,998.25
2022-08-26T00:21:50.115Z,998.29
2022-08-26T00:22:50.876Z,998.29
2022-08-26T00:23:49.883Z,998.29
2022-08-26T00:24:51.080Z,998.29
2022-08-26T00:25:50.858Z,998.31
2022-08-26T00:26:49.802Z,998.33
2022-08-26T00:27:50.040Z,998.34
2022-08-26T00:28:50.065Z,998.33
2022-08-26T00:30:17.945Z,998.32
2022-08-26T00:30:51.641Z,998.30
2022-08-26T00:31:49.793Z,998.32
2022-08-26T00:32:50.826Z,998.35
2022-08-26T00:33:49.801Z,998.33
2022-08-26T00:34:49.760Z,998.30
2022-08-26T00:35:49.951Z,998.33
2022-08-26T00:36:52.009Z,998.34
2022-08-26T00:37:52.944Z,998.36
2022-08-26T00:38:49.926Z,998.37
2022-08-26T00:39:49.762Z,998.32
2022-08-26T00:41:10.669Z,998.35
2022-08-26T00:41:52.973Z,998.35
2022-08-26T00:42:52.696Z,998.33
2022-08-26T00:43:50.841Z,998.32
2022-08-26T00:44:49.864Z,998.31
2022-08-26T00:45:49.696Z,998.33
2022-08-26T00:46:52.676Z,998.29
2022-08-26T00:47:50.849Z,998.32
2022-08-26T00:48:50.849Z,998.31
2022-08-26T00:50:10.585Z,998.29
2022-08-26T00:50:49.643Z,998.33
2022-08-26T00:51:50.567Z,998.32
2022-08-26T00:52:50.811Z,998.29
2022-08-26T00:53:50.797Z,998.33
2022-08-26T00:54:49.763Z,998.30
2022-08-26T00:55:49.760Z,998.29
2022-08-26T00:56:49.750Z,998.30
2022-08-26T00:57:52.760Z,998.29
2022-08-26T00:58:49.733Z,998.30
2022-08-26T00:59:49.484Z,998.33
2022-08-26T01:00:49.535Z,998.29
2022-08-26T01:01:49.496Z,998.29
2022-08-26T01:02:50.718Z,998.31
2022-08-26T01:03:49.688Z,998.31
2022-08-26T01:04:49.643Z,998.36
2022-08-26T01:05:50.412Z,998.29
2022-08-26T01:06:56.701Z,998.34
2022-08-26T01:07:52.673Z,998.33
2022-08-26T01:08:49.372Z,998.29
2022-08-26T01:09:49.645Z,998.27
2022-08-26T01:10:49.590Z,998.34
2022-08-26T01:11:50.361Z,998.31
2022-08-26T01:12:50.361Z,998.24
2022-08-26T01:13:50.403Z,998.26
2022-08-26T01:14:49.552Z,998.26
2022-08-26T01:15:49.544Z,998.23
2022-08-26T01:16:49.342Z,998.22
2022-08-26T01:17:50.544Z,998.24
2022-08-26T01:18:49.513Z,998.28
2022-08-26T01:19:50.533Z,998.28
2022-08-26T01:20:49.253Z,998.25
2022-08-26T01:21:49.279Z,998.26
2022-08-26T01:22:50.256Z,998.19
2022-08-26T01:23:49.263Z,998.19
2022-08-26T01:24:49.447Z,998.24
2022-08-26T01:25:49.208Z,998.20
2022-08-26T01:26:50.249Z,998.20
2022-08-26T01:27:49.274Z,998.24
2022-08-26T01:28:51.711Z,998.18
2022-08-26T01:29:49.158Z,998.20
2022-08-26T01:30:49.145Z,998.20
2022-08-26T01:31:49.211Z,998.20
2022-08-26T01:32:50.394Z,998.15
2022-08-26T01:33:49.127Z,998.21
2022-08-26T01:34:50.361Z,998.23
2022-08-26T01:35:56.194Z,998.19
2022-08-26T01:36:51.673Z,998.19
2022-08-26T01:37:49.102Z,998.20
2022-08-26T01:38:49.108Z,998.23
2022-08-26T01:39:56.350Z,998.19
2022-08-26T01:40:50.733Z,998.20
2022-08-26T01:41:53.665Z,998.15
2022-08-26T01:42:49.017Z,998.15
2022-08-26T01:43:49.032Z,998.15
2022-08-26T01:44:49.003Z,998.18
2022-08-26T01:45:56.313Z,998.15
2022-08-26T01:46:49.029Z,998.14
2022-08-26T01:47:48.985Z,998.17
2022-08-26T01:48:56.221Z,998.18
2022-08-26T01:49:56.113Z,998.20
2022-08-26T01:50:49.180Z,998.19
2022-08-26T01:51:49.193Z,998.19
2022-08-26T01:52:50.029Z,998.23
2022-08-26T01:53:51.171Z,998.23
2022-08-26T01:54:50.473Z,998.28
2022-08-26T01:55:49.162Z,998.32
2022-08-26T01:56:48.894Z,998.31
2022-08-26T01:57:49.109Z,998.30
2022-08-26T01:58:48.862Z,998.35
2022-08-26T01:59:52.070Z,998.31
2022-08-26T02:00:51.941Z,998.33
2022-08-26T02:01:48.877Z,998.31
2022-08-26T02:02:50.320Z,998.27
2022-08-26T02:03:49.061Z,998.27
2022-08-26T02:04:48.878Z,998.28
2022-08-26T02:05:51.439Z,998.31
2022-08-26T02:06:49.045Z,998.28
2022-08-26T02:07:48.998Z,998.26
2022-08-26T02:08:48.756Z,998.27
2022-08-26T02:09:48.960Z,998.28
2022-08-26T02:10:48.744Z,998.31
2022-08-26T02:11:48.737Z,998.33
2022-08-26T02:12:48.955Z,998.29
2022-08-26T02:13:48.697Z,998.29
2022-08-26T02:14:48.697Z,998.33
2022-08-26T02:15:48.732Z,998.29
2022-08-26T02:16:48.656Z,998.34
2022-08-26T02:17:48.921Z,998.31
2022-08-26T02:18:48.888Z,998.28
2022-08-26T02:19:48.902Z,998.32
2022-08-26T02:20:51.565Z,998.33
2022-08-26T02:21:51.302Z,998.25
2022-08-26T02:22:48.644Z,998.31
2022-08-26T02:23:48.580Z,998.30
2022-08-26T02:24:48.810Z,998.25
2022-08-26T02:25:48.570Z,998.29
2022-08-26T02:26:48.556Z,998.26
2022-08-26T02:27:48.784Z,998.28
2022-08-26T02:28:48.572Z,998.26
2022-08-26T02:29:48.561Z,998.28
2022-08-26T02:30:48.739Z,998.25
2022-08-26T02:31:48.557Z,998.27
2022-08-26T02:32:49.595Z,998.23
2022-08-26T02:33:49.757Z,998.27
2022-08-26T02:34:48.469Z,998.27
2022-08-26T02:35:49.711Z,998.32
2022-08-26T02:36:55.670Z,998.29
2022-08-26T02:37:49.511Z,998.31
2022-08-26T02:38:48.659Z,998.30
2022-08-26T02:39:48.488Z,998.32
2022-08-26T02:40:48.392Z,998.29
2022-08-26T02:41:49.655Z,998.29
2022-08-26T02:42:48.645Z,998.23
2022-08-26T02:43:49.614Z,998.25
2022-08-26T02:44:51.631Z,998.26
2022-08-26T02:45:48.573Z,998.24
2022-08-26T02:46:48.445Z,998.26
2022-08-26T02:47:48.346Z,998.26
2022-08-26T02:48:48.544Z,998.26
2022-08-26T02:49:49.562Z,998.27
2022-08-26T02:50:49.543Z,998.27
2022-08-26T02:51:48.514Z,998.28
2022-08-26T02:52:48.666Z,998.30
2022-08-26T02:53:49.516Z,998.29
2022-08-26T02:54:49.740Z,998.25
2022-08-26T02:55:48.492Z,998.27
2022-08-26T02:56:49.271Z,998.29
2022-08-26T02:57:48.243Z,998.29
2022-08-26T02:58:48.452Z,998.30
2022-08-26T02:59:49.226Z,998.31
2022-08-26T03:00:55.428Z,998.27
2022-08-26T03:01:56.144Z,998.26
2022-08-26T03:02:51.200Z,998.29
2022-08-26T03:03:48.445Z,998.31
2022-08-26T03:04:57.447Z,998.29
2022-08-26T03:05:49.401Z,998.29
2022-08-26T03:06:52.747Z,998.23
2022-08-26T03:07:49.117Z,998.23
2022-08-26T03:08:48.376Z,998.23
2022-08-26T03:10:09.130Z,998.26
2022-08-26T03:10:55.233Z,998.25
2022-08-26T03:11:49.086Z,998.20
2022-08-26T03:12:48.307Z,998.19
2022-08-26T03:13:48.111Z,998.15
2022-08-26T03:14:48.308Z,998.17
2022-08-26T03:15:48.291Z,998.14
2022-08-26T03:17:03.357Z,998.13
2022-08-26T03:17:51.031Z,998.15
2022-08-26T03:18:52.251Z,998.13
2022-08-26T03:19:51.732Z,998.12
2022-08-26T03:20:49.252Z,998.10
2022-08-26T03:21:50.998Z,998.12
2022-08-26T03:22:48.210Z,998.13
2022-08-26T03:24:03.454Z,998.15
2022-08-26T03:24:47.975Z,998.13
2022-08-26T03:25:48.201Z,998.11
2022-08-26T03:26:55.234Z,998.11
2022-08-26T03:27:48.899Z,998.09
2022-08-26T03:28:47.917Z,998.11
2022-08-26T03:29:49.580Z,998.11
2022-08-26T03:30:47.905Z,998.15
2022-08-26T03:31:48.878Z,998.15
2022-08-26T03:32:48.882Z,998.16
2022-08-26T03:33:48.882Z,998.14
2022-08-26T03:34:50.875Z,998.14
2022-08-26T03:35:47.868Z,998.16
2022-08-26T03:36:48.893Z,998.12
2022-08-26T03:37:47.814Z,998.13
2022-08-26T03:38:55.314Z,998.14
2022-08-26T03:40:09.090Z,998.12
2022-08-26T03:40:48.048Z,998.14
2022-08-26T03:41:49.006Z,998.14
2022-08-26T03:42:49.013Z,998.10
2022-08-26T03:43:47.972Z,998.10
2022-08-26T03:44:47.989Z,998.15
2022-08-26T03:45:47.983Z,998.12
2022-08-26T03:46:47.761Z,998.13
2022-08-26T03:47:47.946Z,998.15
2022-08-26T03:48:48.704Z,998.13
2022-08-26T03:49:48.737Z,998.17
2022-08-26T03:50:47.685Z,998.18
2022-08-26T03:51:48.729Z,998.16
2022-08-26T03:52:47.646Z,998.21
2022-08-26T03:53:48.663Z,998.20
2022-08-26T03:54:47.629Z,998.18
2022-08-26T03:55:47.677Z,998.15
2022-08-26T03:56:48.626Z,998.15
2022-08-26T03:57:48.829Z,998.18
2022-08-26T03:58:47.608Z,998.13
2022-08-26T03:59:55.077Z,998.20
2022-08-26T04:00:48.548Z,998.14
2022-08-26T04:01:48.586Z,998.17
2022-08-26T04:02:47.554Z,998.18
2022-08-26T04:03:48.791Z,998.17
2022-08-26T04:04:48.572Z,998.17
2022-08-26T04:05:48.801Z,998.13
2022-08-26T04:06:47.524Z,998.13
2022-08-26T04:07:48.606Z,998.13
2022-08-26T04:08:47.740Z,998.14
2022-08-26T04:09:48.519Z,998.14
2022-08-26T04:10:47.465Z,998.14
2022-08-26T04:11:47.553Z,998.15
2022-08-26T04:12:47.522Z,998.12
2022-08-26T04:13:47.664Z,998.12
2022-08-26T04:14:47.668Z,998.09
2022-08-26T04:16:08.441Z,998.12
2022-08-26T04:16:48.672Z,998.08
2022-08-26T04:17:47.413Z,998.09
2022-08-26T04:18:47.652Z,998.09
2022-08-26T04:19:48.447Z,998.08
2022-08-26T04:20:50.650Z,998.11
2022-08-26T04:21:48.371Z,998.09
2022-08-26T04:22:54.644Z,998.06
2022-08-26T04:23:48.093Z,998.08
2022-08-26T04:24:47.343Z,998.06
2022-08-26T04:25:50.331Z,998.04
2022-08-26T04:26:47.331Z,998.03
2022-08-26T04:27:48.541Z,998.06
2022-08-26T04:28:48.297Z,998.06
2022-08-26T04:29:47.940Z,998.06
2022-08-26T04:30:50.272Z,998.05
2022-08-26T04:31:48.464Z,998.06
2022-08-26T04:32:54.453Z,998.06
2022-08-26T04:33:47.237Z,998.10
2022-08-26T04:34:47.206Z,998.09
2022-08-26T04:35:47.225Z,998.10
2022-08-26T04:36:47.197Z,998.08
2022-08-26T04:37:47.211Z,998.13
2022-08-26T04:39:02.586Z,998.11
2022-08-26T04:39:50.234Z,998.12
2022-08-26T04:40:48.398Z,998.12
2022-08-26T04:41:47.386Z,998.13
2022-08-26T04:42:47.137Z,998.15
2022-08-26T04:43:47.106Z,998.13
2022-08-26T04:45:02.526Z,998.18
2022-08-26T04:45:47.130Z,998.19
2022-08-26T04:46:50.435Z,998.22
2022-08-26T04:47:47.330Z,998.23
2022-08-26T04:48:47.099Z,998.19
2022-08-26T04:49:47.299Z,998.22
2022-08-26T04:50:49.522Z,998.23
2022-08-26T04:51:50.326Z,998.23
2022-08-26T04:52:47.045Z,998.17
2022-08-26T04:53:47.038Z,998.21
2022-08-26T04:54:47.011Z,998.15
2022-08-26T04:55:48.545Z,998.15
2022-08-26T04:56:50.029Z,998.17
2022-08-26T04:57:47.314Z,998.22
2022-08-26T04:58:46.993Z,998.21
2022-08-26T04:59:46.949Z,998.22
2022-08-26T05:00:47.157Z,998.22
2022-08-26T05:01:50.082Z,998.19
2022-08-26T05:02:49.973Z,998.22
2022-08-26T05:03:46.998Z,998.28
2022-08-26T05:04:47.927Z,998.24
2022-08-26T05:05:48.005Z,998.23
2022-08-26T05:06:56.742Z,998.24
2022-08-26T05:07:49.961Z,998.23
2022-08-26T05:08:46.873Z,998.24
2022-08-26T05:09:46.839Z,998.26
2022-08-26T05:10:46.870Z,998.27
2022-08-26T05:11:48.591Z,998.26
2022-08-26T05:12:48.063Z,998.31
2022-08-26T05:13:46.826Z,998.29
2022-08-26T05:14:46.786Z,998.29
2022-08-26T05:15:47.909Z,998.26
2022-08-26T05:16:50.037Z,998.28
2022-08-26T05:17:46.739Z,998.24
2022-08-26T05:18:46.782Z,998.30
2022-08-26T05:19:46.740Z,998.31
2022-08-26T05:20:46.807Z,998.26
2022-08-26T05:21:47.117Z,998.30
2022-08-26T05:22:47.770Z,998.27
2022-08-26T05:23:46.954Z,998.32
2022-08-26T05:24:49.726Z,998.26
2022-08-26T05:25:46.905Z,998.27
2022-08-26T05:26:46.666Z,998.24
2022-08-26T05:27:46.662Z,998.26
2022-08-26T05:28:46.894Z,998.24
2022-08-26T05:29:46.849Z,998.23
2022-08-26T05:30:48.698Z,998.26
2022-08-26T05:31:46.661Z,998.28
2022-08-26T05:32:46.838Z,998.26
2022-08-26T05:33:46.602Z,998.28
2022-08-26T05:34:46.577Z,998.29
2022-08-26T05:35:49.606Z,998.26
2022-08-26T05:36:53.976Z,998.29
2022-08-26T05:37:46.581Z,998.25
2022-08-26T05:38:46.570Z,998.31
2022-08-26T05:39:50.969Z,998.29
2022-08-26T05:40:49.566Z,998.29
2022-08-26T05:41:46.735Z,998.31
2022-08-26T05:42:47.521Z,998.30
2022-08-26T05:43:46.500Z,998.30
2022-08-26T05:44:54.066Z,998.30
2022-08-26T05:45:48.735Z,998.30
2022-08-26T05:46:46.547Z,998.30
2022-08-26T05:47:53.954Z,998.34
2022-08-26T05:48:47.444Z,998.37
2022-08-26T05:49:51.612Z,998.34
2022-08-26T05:50:47.435Z,998.28
2022-08-26T05:51:47.958Z,998.33
2022-08-26T05:52:46.429Z,998.35
2022-08-26T05:53:54.625Z,998.34
2022-08-26T05:54:47.690Z,998.28
2022-08-26T05:55:46.582Z,998.27
2022-08-26T05:56:47.379Z,998.22
2022-08-26T05:57:46.598Z,998.30
2022-08-26T05:58:46.367Z,998.30
2022-08-26T05:59:47.588Z,998.26
2022-08-26T06:00:46.347Z,998.25
2022-08-26T06:01:53.452Z,998.30
2022-08-26T06:02:48.422Z,998.27
2022-08-26T06:03:46.314Z,998.30
2022-08-26T06:04:46.260Z,998.29
2022-08-26T06:05:46.293Z,998.31
2022-08-26T06:06:46.279Z,998.29
2022-08-26T06:07:49.300Z,998.28
2022-08-26T06:08:46.466Z,998.28
2022-08-26T06:09:49.253Z,998.31
2022-08-26T06:11:07.473Z,998.34
2022-08-26T06:11:47.450Z,998.32
2022-08-26T06:12:46.451Z,998.36
2022-08-26T06:13:46.431Z,998.33
2022-08-26T06:14:49.425Z,998.34
2022-08-26T06:15:46.201Z,998.36
2022-08-26T06:16:46.146Z,998.32
2022-08-26T06:17:46.145Z,998.32
2022-08-26T06:18:46.348Z,998.31
2022-08-26T06:19:47.147Z,998.31
2022-08-26T06:20:57.339Z,998.28
2022-08-26T06:21:47.345Z,998.29
2022-08-26T06:23:01.623Z,998.30
2022-08-26T06:23:47.059Z,998.33
2022-08-26T06:24:46.091Z,998.31
2022-08-26T06:25:47.056Z,998.30
2022-08-26T06:26:50.964Z,998.31
2022-08-26T06:27:47.261Z,998.33
2022-08-26T06:28:46.016Z,998.34
2022-08-26T06:29:46.030Z,998.31
2022-08-26T06:30:47.086Z,998.33
2022-08-26T06:31:45.979Z,998.32
2022-08-26T06:32:45.990Z,998.31
2022-08-26T06:33:45.988Z,998.32
2022-08-26T06:34:45.956Z,998.32
2022-08-26T06:35:45.929Z,998.35
2022-08-26T06:36:45.921Z,998.36
2022-08-26T06:37:45.927Z,998.34
2022-08-26T06:38:45.905Z,998.38
2022-08-26T06:39:46.154Z,998.37
2022-08-26T06:40:47.357Z,998.39
2022-08-26T06:41:45.888Z,998.39
2022-08-26T06:42:45.940Z,998.44
2022-08-26T06:43:45.845Z,998.44
2022-08-26T06:44:49.117Z,998.43
2022-08-26T06:45:53.322Z,998.48
2022-08-26T06:46:50.366Z,998.48
2022-08-26T06:47:46.857Z,998.49
2022-08-26T06:48:45.820Z,998.47
2022-08-26T06:50:07.818Z,998.47
2022-08-26T06:50:49.975Z,998.48
2022-08-26T06:52:01.359Z,998.47
2022-08-26T06:52:52.842Z,998.48
2022-08-26T06:53:45.763Z,998.48
2022-08-26T06:54:45.739Z,998.51
2022-08-26T06:55:45.736Z,998.51
2022-08-26T06:56:45.735Z,998.51
2022-08-26T06:57:46.695Z,998.53
2022-08-26T06:58:45.693Z,998.52
2022-08-26T06:59:51.208Z,998.56
2022-08-26T07:00:49.157Z,998.54
2022-08-26T07:01:45.856Z,998.55
2022-08-26T07:02:46.161Z,998.53
2022-08-26T07:03:46.550Z,998.56
2022-08-26T07:04:47.945Z,998.54
2022-08-26T07:05:46.881Z,998.53
2022-08-26T07:06:45.645Z,998.57
2022-08-26T07:07:45.605Z,998.51
2022-08-26T07:08:45.588Z,998.52
2022-08-26T07:09:45.623Z,998.50
2022-08-26T07:10:46.586Z,998.50
2022-08-26T07:11:49.146Z,998.53
2022-08-26T07:12:47.294Z,998.55
2022-08-26T07:13:46.821Z,998.53
2022-08-26T07:14:48.794Z,998.50
2022-08-26T07:15:45.837Z,998.48
2022-08-26T07:16:46.732Z,998.47
2022-08-26T07:17:45.507Z,998.53
2022-08-26T07:18:46.506Z,998.48
2022-08-26T07:19:48.755Z,998.49
2022-08-26T07:20:46.494Z,998.51
2022-08-26T07:21:46.445Z,998.46
2022-08-26T07:22:48.476Z,998.46
2022-08-26T07:23:45.487Z,998.52
2022-08-26T07:24:46.671Z,998.46
2022-08-26T07:25:46.475Z,998.50
2022-08-26T07:26:46.623Z,998.47
2022-08-26T07:27:45.411Z,998.44
2022-08-26T07:28:45.418Z,998.46
2022-08-26T07:29:45.381Z,998.45
2022-08-26T07:30:48.655Z,998.46
2022-08-26T07:31:46.376Z,998.45
2022-08-26T07:32:45.359Z,998.49
2022-08-26T07:33:45.583Z,998.51
2022-08-26T07:34:45.560Z,998.50
2022-08-26T07:35:48.365Z,998.49
2022-08-26T07:37:00.946Z,998.48
2022-08-26T07:37:45.339Z,998.50
2022-08-26T07:38:46.313Z,998.48
2022-08-26T07:39:45.258Z,998.51
2022-08-26T07:40:45.272Z,998.51
2022-08-26T07:41:48.918Z,998.52
2022-08-26T07:42:45.490Z,998.47
2022-08-26T07:43:45.491Z,998.56
2022-08-26T07:44:45.218Z,998.52
2022-08-26T07:45:46.285Z,998.54
2022-08-26T07:46:45.436Z,998.54
2022-08-26T07:47:47.241Z,998.51
2022-08-26T07:48:46.207Z,998.42
2022-08-26T07:49:52.872Z,998.45
2022-08-26T07:50:49.158Z,998.44
2022-08-26T07:51:46.138Z,998.47
2022-08-26T07:52:45.126Z,998.41
2022-08-26T07:53:45.356Z,998.36
2022-08-26T07:54:45.361Z,998.36
2022-08-26T07:55:46.139Z,998.36
2022-08-26T07:56:45.093Z,998.40
2022-08-26T07:57:45.088Z,998.42
2022-08-26T07:58:48.968Z,998.44
2022-08-26T07:59:46.310Z,998.41
2022-08-26T08:00:46.119Z,998.42
2022-08-26T08:01:45.514Z,998.43
2022-08-26T08:02:52.244Z,998.45
2022-08-26T08:03:45.275Z,998.50
2022-08-26T08:04:45.085Z,998.50
2022-08-26T08:05:48.038Z,998.49
2022-08-26T08:06:46.216Z,998.48
2022-08-26T08:07:45.997Z,998.49
2022-08-26T08:08:45.237Z,998.51
2022-08-26T08:09:46.232Z,998.49
2022-08-26T08:10:44.973Z,998.47
2022-08-26T08:11:44.975Z,998.48
2022-08-26T08:12:44.916Z,998.51
2022-08-26T08:13:45.925Z,998.52
2022-08-26T08:14:44.959Z,998.49
2022-08-26T08:15:47.926Z,998.45
2022-08-26T08:16:46.783Z,998.48
2022-08-26T08:17:44.866Z,998.44
2022-08-26T08:18:45.892Z,998.42
2022-08-26T08:19:45.856Z,998.46
2022-08-26T08:20:54.491Z,998.45
2022-08-26T08:21:45.865Z,998.48
2022-08-26T08:22:46.088Z,998.52
2022-08-26T08:23:45.332Z,998.46
2022-08-26T08:24:45.829Z,998.45
2022-08-26T08:25:44.801Z,998.42
2022-08-26T08:26:45.780Z,998.45
2022-08-26T08:27:44.814Z,998.44
2022-08-26T08:28:44.769Z,998.44
2022-08-26T08:29:45.749Z,998.45
2022-08-26T08:30:46.033Z,998.48
2022-08-26T08:31:56.535Z,998.48
2022-08-26T08:32:45.720Z,998.45
2022-08-26T08:33:44.953Z,998.41
2022-08-26T08:35:10.861Z,998.43
2022-08-26T08:35:45.911Z,998.42
2022-08-26T08:36:44.672Z,998.46
2022-08-26T08:37:44.698Z,998.42
2022-08-26T08:38:44.684Z,998.43
2022-08-26T08:39:45.870Z,998.44
2022-08-26T08:40:44.687Z,998.46
2022-08-26T08:41:44.640Z,998.46
2022-08-26T08:42:44.665Z,998.49
2022-08-26T08:43:44.624Z,998.41
2022-08-26T08:44:44.608Z,998.39
2022-08-26T08:45:47.134Z,998.35
2022-08-26T08:46:44.574Z,998.38
2022-08-26T08:48:00.231Z,998.34
2022-08-26T08:48:44.798Z,998.31
2022-08-26T08:49:47.817Z,998.33
2022-08-26T08:50:44.761Z,998.33
2022-08-26T08:51:47.567Z,998.30
2022-08-26T08:52:44.507Z,998.29
2022-08-26T08:53:44.663Z,998.28
2022-08-26T08:54:44.497Z,998.25
2022-08-26T08:55:44.465Z,998.26
2022-08-26T08:56:45.463Z,998.22
2022-08-26T08:57:44.644Z,998.22
2022-08-26T08:58:44.445Z,998.25
2022-08-26T08:59:44.446Z,998.25
2022-08-26T09:00:44.447Z,998.20
2022-08-26T09:01:47.677Z,998.21
2022-08-26T09:02:45.465Z,998.25
2022-08-26T09:03:44.607Z,998.17
2022-08-26T09:04:44.660Z,998.15
2022-08-26T09:05:48.558Z,998.17
2022-08-26T09:06:44.366Z,998.18
2022-08-26T09:07:47.393Z,998.19
2022-08-26T09:08:47.378Z,998.18
2022-08-26T09:09:44.437Z,998.16
2022-08-26T09:10:44.349Z,998.16
2022-08-26T09:11:45.329Z,998.16
2022-08-26T09:12:45.576Z,998.15
2022-08-26T09:13:44.266Z,998.12
2022-08-26T09:14:44.290Z,998.10
2022-08-26T09:15:45.259Z,998.15
2022-08-26T09:16:44.321Z,998.16
2022-08-26T09:17:44.260Z,998.17
2022-08-26T09:18:45.995Z,998.17
2022-08-26T09:19:44.240Z,998.17
2022-08-26T09:20:45.543Z,998.14
2022-08-26T09:21:44.205Z,998.17
2022-08-26T09:22:44.442Z,998.18
2022-08-26T09:23:44.176Z,998.13
2022-08-26T09:24:48.518Z,998.11
2022-08-26T09:25:45.250Z,998.08
2022-08-26T09:26:44.374Z,998.07
2022-08-26T09:27:44.144Z,998.04
2022-08-26T09:28:45.367Z,998.02
2022-08-26T09:29:51.309Z,998.05
2022-08-26T09:30:44.468Z,998.05
2022-08-26T09:31:44.088Z,998.00
2022-08-26T09:32:44.104Z,998.00
2022-08-26T09:33:52.431Z,998.01
2022-08-26T09:34:47.346Z,997.99
2022-08-26T09:35:59.418Z,997.95
2022-08-26T09:36:47.327Z,998.01
2022-08-26T09:38:45.025Z,997.99
2022-08-26T09:39:47.078Z,997.98
2022-08-26T09:40:44.024Z,998.00
2022-08-26T09:41:47.285Z,997.98
2022-08-26T09:42:44.234Z,998.01
2022-08-26T09:43:44.428Z,997.98
2022-08-26T09:44:43.956Z,997.98
2022-08-26T09:45:50.733Z,998.02
2022-08-26T09:46:45.079Z,997.98
2022-08-26T09:47:44.159Z,998.00
2022-08-26T09:48:43.930Z,997.93
2022-08-26T09:49:46.931Z,997.96
2022-08-26T09:50:43.898Z,997.94
2022-08-26T09:51:46.925Z,997.96
2022-08-26T09:52:44.153Z,997.93
2022-08-26T09:53:43.877Z,997.92
2022-08-26T09:54:44.088Z,997.94
2022-08-26T09:55:47.130Z,997.95
2022-08-26T09:56:44.080Z,997.88
2022-08-26T09:57:43.823Z,997.86
2022-08-26T09:58:44.073Z,997.82
2022-08-26T09:59:44.818Z,997.82
2022-08-26T10:00:44.025Z,997.77
2022-08-26T10:01:44.794Z,997.73
2022-08-26T10:02:47.918Z,997.72
2022-08-26T10:03:44.803Z,997.71
2022-08-26T10:04:45.051Z,997.69
2022-08-26T10:05:44.739Z,997.70
2022-08-26T10:06:43.750Z,997.75
2022-08-26T10:07:59.672Z,997.70
2022-08-26T10:08:44.098Z,997.69
2022-08-26T10:09:43.691Z,997.70
2022-08-26T10:10:44.659Z,997.71
2022-08-26T10:11:43.671Z,997.71
2022-08-26T10:12:43.693Z,997.68
2022-08-26T10:13:43.873Z,997.66
2022-08-26T10:15:50.019Z,997.58
2022-08-26T10:16:45.942Z,997.60
2022-08-26T10:17:43.618Z,997.56
2022-08-26T10:18:43.605Z,997.53
2022-08-26T10:19:56.603Z,997.48
2022-08-26T10:20:59.934Z,997.48
2022-08-26T10:21:44.605Z,997.43
2022-08-26T10:22:43.605Z,997.43
2022-08-26T10:23:43.786Z,997.45
2022-08-26T10:24:43.763Z,997.41
2022-08-26T10:25:43.520Z,997.40
2022-08-26T10:26:44.788Z,997.43
2022-08-26T10:27:49.537Z,997.42
2022-08-26T10:28:44.521Z,997.37
2022-08-26T10:29:43.762Z,997.36
2022-08-26T10:30:50.765Z,997.39
2022-08-26T10:31:43.742Z,997.38
2022-08-26T10:32:58.997Z,997.37
2022-08-26T10:33:44.473Z,997.37
2022-08-26T10:34:43.710Z,997.40
2022-08-26T10:35:43.467Z,997.39
2022-08-26T10:36:58.634Z,997.41
2022-08-26T10:37:44.624Z,997.40
2022-08-26T10:38:44.247Z,997.42
2022-08-26T10:39:43.620Z,997.40
2022-08-26T10:40:45.325Z,997.47
2022-08-26T10:41:43.390Z,997.41
2022-08-26T10:42:46.392Z,997.42
2022-08-26T10:43:43.345Z,997.40
2022-08-26T10:44:44.180Z,997.38
2022-08-26T10:45:46.378Z,997.37
2022-08-26T10:46:43.562Z,997.40
2022-08-26T10:47:44.391Z,997.33
2022-08-26T10:48:43.311Z,997.36
2022-08-26T10:49:43.521Z,997.37
2022-08-26T10:50:47.551Z,997.33
2022-08-26T10:51:45.642Z,997.40
2022-08-26T10:52:43.280Z,997.39
2022-08-26T10:53:44.534Z,997.36
2022-08-26T10:54:46.242Z,997.39
2022-08-26T10:55:46.492Z,997.33
2022-08-26T10:56:43.216Z,997.33
2022-08-26T10:57:43.426Z,997.34
2022-08-26T10:58:44.617Z,997.34
2022-08-26T10:59:43.195Z,997.30
2022-08-26T11:00:43.908Z,997.32
2022-08-26T11:01:44.273Z,997.33
2022-08-26T11:02:50.248Z,997.32
2022-08-26T11:03:46.227Z,997.32
2022-08-26T11:04:47.499Z,997.31
2022-08-26T11:05:44.113Z,997.25
2022-08-26T11:06:43.112Z,997.31
2022-08-26T11:07:43.096Z,997.30
2022-08-26T11:08:43.313Z,997.29
2022-08-26T11:09:43.072Z,997.32
2022-08-26T11:10:46.343Z,997.27
2022-08-26T11:11:44.057Z,997.27
2022-08-26T11:12:43.106Z,997.28
2022-08-26T11:13:43.253Z,997.28
2022-08-26T11:14:53.962Z,997.23
2022-08-26T11:15:51.318Z,997.24
2022-08-26T11:16:43.718Z,997.26
2022-08-26T11:17:42.991Z,997.25
2022-08-26T11:18:44.026Z,997.23
2022-08-26T11:20:00.312Z,997.24
2022-08-26T11:20:44.223Z,997.23
2022-08-26T11:21:44.185Z,997.18
2022-08-26T11:22:48.175Z,997.23
2022-08-26T11:23:52.946Z,997.14
2022-08-26T11:24:50.155Z,997.17
2022-08-26T11:25:43.161Z,997.17
2022-08-26T11:26:55.450Z,997.12
2022-08-26T11:27:44.908Z,997.08
2022-08-26T11:28:44.089Z,997.07
2022-08-26T11:29:43.120Z,997.14
2022-08-26T11:30:42.855Z,997.12
2022-08-26T11:31:42.916Z,997.10
2022-08-26T11:32:45.888Z,997.06
2022-08-26T11:33:51.064Z,997.06
2022-08-26T11:34:44.047Z,997.05
2022-08-26T11:35:43.021Z,997.01
2022-08-26T11:36:42.810Z,996.98
2022-08-26T11:37:49.919Z,996.96
2022-08-26T11:38:42.768Z,996.97
2022-08-26T11:39:46.426Z,996.90
2022-08-26T11:40:43.035Z,996.92
2022-08-26T11:41:42.779Z,996.88
2022-08-26T11:42:42.822Z,996.89
2022-08-26T11:43:43.762Z,996.86
2022-08-26T11:44:49.433Z,996.90
2022-08-26T11:45:44.025Z,996.88
2022-08-26T11:46:42.906Z,996.88
2022-08-26T11:47:42.688Z,996.83
2022-08-26T11:49:03.667Z,996.81
2022-08-26T11:49:43.922Z,996.79
2022-08-26T11:50:42.886Z,996.79
2022-08-26T11:51:46.422Z,996.78
2022-08-26T11:52:43.615Z,996.77
2022-08-26T11:53:42.615Z,996.77
2022-08-26T11:54:42.607Z,996.80
2022-08-26T11:55:45.616Z,996.81
2022-08-26T11:56:42.815Z,996.80
2022-08-26T11:57:42.631Z,996.82
2022-08-26T11:58:42.775Z,996.81
2022-08-26T11:59:43.561Z,996.80
2022-08-26T12:00:45.678Z,996.84
2022-08-26T12:01:42.755Z,996.87
2022-08-26T12:02:42.556Z,996.88
2022-08-26T12:03:50.039Z,996.89
2022-08-26T12:04:42.757Z,996.88
2022-08-26T12:05:42.717Z,996.92
2022-08-26T12:06:45.834Z,996.93
2022-08-26T12:07:45.736Z,996.90
2022-08-26T12:08:42.471Z,996.89
2022-08-26T12:09:43.690Z,996.89
2022-08-26T12:10:42.425Z,996.85
2022-08-26T12:11:42.427Z,996.89
2022-08-26T12:12:42.665Z,996.91
2022-08-26T12:13:45.435Z,996.92
2022-08-26T12:14:42.433Z,996.88
2022-08-26T12:15:43.618Z,996.91
2022-08-26T12:16:42.429Z,996.90
2022-08-26T12:17:42.357Z,996.90
2022-08-26T12:18:44.842Z,996.87
2022-08-26T12:19:42.591Z,996.84
2022-08-26T12:20:43.606Z,996.84
2022-08-26T12:21:43.335Z,996.81
2022-08-26T12:22:48.089Z,996.78
2022-08-26T12:23:42.275Z,996.77
2022-08-26T12:24:42.536Z,996.84
2022-08-26T12:25:49.359Z,996.80
2022-08-26T12:26:42.490Z,996.77
2022-08-26T12:27:57.619Z,996.78
2022-08-26T12:28:45.307Z,996.76
2022-08-26T12:29:42.513Z,996.74
2022-08-26T12:30:58.861Z,996.77